Time;durP1;ratioP1;P1;durP2;ratioP2;P2;SDS_P1;SDS_P2;PMS_P1;PMS_P2;Temp;Humidity;BMP_temperature;BMP_pressure;BME280_temperature;BME280_humidity;BME280_pressure;Samples;Min_cycle;Max_cycle;Signal;HPM_P1;HPM_P2
2022/10/31 00:01:30;;;;;;;5.35;1.82;;;;;;;11.41;62.51;100212.69;1695110;84;21024;-73
2022/10/31 00:03:58;;;;;;;4.87;1.62;;;;;;;11.42;62.54;100202.27;1697685;83;21072;-73
2022/10/31 00:06:27;;;;;;;9.05;1.95;;;;;;;11.40;62.70;100204.95;1730321;83;21059;-73
2022/10/31 00:08:57;;;;;;;7.25;2.00;;;;;;;11.38;62.70;100204.41;1728532;81;21082;-73
2022/10/31 00:11:24;;;;;;;8.35;1.98;;;;;;;11.36;62.75;100199.34;1701941;83;21074;-72
2022/10/31 00:13:51;;;;;;;8.08;2.05;;;;;;;11.34;62.88;100205.48;1729994;82;20956;-71
2022/10/31 00:16:22;;;;;;;6.72;2.12;;;;;;;11.32;63.01;100207.64;1700099;82;21182;-72
2022/10/31 00:18:50;;;;;;;4.95;1.87;;;;;;;11.27;63.22;100209.77;1728607;83;20964;-71
2022/10/31 00:21:18;;;;;;;6.15;1.80;;;;;;;11.27;63.26;100205.77;1694117;84;21094;-73
2022/10/31 00:23:46;;;;;;;5.33;1.77;;;;;;;11.26;63.32;100194.81;1728573;83;21055;-73
2022/10/31 00:26:12;;;;;;;6.03;1.82;;;;;;;11.26;63.49;100200.70;1715143;83;21032;-72
2022/10/31 00:28:40;;;;;;;5.87;1.70;;;;;;;11.27;63.55;100203.09;1724634;83;22527;-72
2022/10/31 00:31:09;;;;;;;5.53;1.80;;;;;;;11.30;63.63;100200.95;1712888;83;21020;-72
2022/10/31 00:33:38;;;;;;;5.35;1.75;;;;;;;11.30;63.78;100200.41;1721665;83;21043;-73
2022/10/31 00:36:06;;;;;;;7.05;1.98;;;;;;;11.33;63.86;100201.75;1724213;83;21503;-73
2022/10/31 00:38:35;;;;;;;6.50;1.70;;;;;;;11.37;63.88;100205.48;1725431;83;21031;-73
2022/10/31 00:41:03;;;;;;;5.70;1.90;;;;;;;11.41;63.90;100206.00;1735091;81;21015;-73
2022/10/31 00:43:30;;;;;;;6.08;1.70;;;;;;;11.44;63.93;100200.65;1723939;83;21094;-73
2022/10/31 00:45:58;;;;;;;7.37;1.90;;;;;;;11.50;63.82;100215.62;1717079;83;21051;-73
2022/10/31 00:48:25;;;;;;;5.67;1.80;;;;;;;11.55;63.74;100209.44;1726972;81;22416;-72
2022/10/31 00:50:53;;;;;;;6.55;1.90;;;;;;;11.61;63.67;100201.67;1705000;82;21097;-72
2022/10/31 00:53:19;;;;;;;6.45;2.10;;;;;;;11.64;63.55;100216.64;1709628;82;22121;-73
2022/10/31 00:55:47;;;;;;;6.17;1.70;;;;;;;11.69;63.46;100203.27;1724671;82;20967;-72
2022/10/31 00:58:13;;;;;;;5.78;1.67;;;;;;;11.72;63.36;100201.92;1710372;83;21059;-72
2022/10/31 01:00:40;;;;;;;6.70;1.98;;;;;;;11.73;63.24;100198.96;1701899;83;21468;-71
2022/10/31 01:03:08;;;;;;;5.85;1.85;;;;;;;11.76;63.23;100192.27;1697320;83;21622;-72
2022/10/31 01:05:36;;;;;;;7.22;1.92;;;;;;;11.77;63.16;100197.08;1699340;82;22135;-73
2022/10/31 01:08:03;;;;;;;4.95;1.92;;;;;;;11.74;63.05;100196.54;1755509;81;21479;-72
2022/10/31 01:10:31;;;;;;;4.95;1.92;;;;;;;11.74;63.05;100189.84;1754553;81;21073;-74
2022/10/31 01:12:58;;;;;;;4.33;1.67;;;;;;;11.75;63.16;100192.02;1729705;83;21597;-73
2022/10/31 01:15:25;;;;;;;5.33;1.57;;;;;;;11.74;63.13;100187.72;1726868;82;21514;-72
2022/10/31 01:17:52;;;;;;;5.58;1.87;;;;;;;11.71;63.18;100191.77;1729420;83;21125;-72
2022/10/31 01:20:20;;;;;;;6.95;1.70;;;;;;;11.69;63.20;100184.53;1740472;81;21083;-73
2022/10/31 01:22:47;;;;;;;5.30;2.00;;;;;;;11.67;63.30;100190.69;1731958;81;21007;-72
2022/10/31 01:25:16;;;;;;;7.30;2.00;;;;;;;11.63;63.38;100182.95;1695170;84;21124;-72
2022/10/31 01:27:43;;;;;;;5.00;1.65;;;;;;;11.61;63.42;100197.66;1701007;83;21028;-73
2022/10/31 01:30:11;;;;;;;5.87;1.72;;;;;;;11.58;63.51;100186.16;1724291;83;21151;-72
2022/10/31 01:32:39;;;;;;;5.62;1.95;;;;;;;11.56;63.59;100199.03;1724484;83;22156;-73
2022/10/31 01:35:06;;;;;;;7.30;2.15;;;;;;;11.53;63.63;100199.03;1757626;81;21235;-74
2022/10/31 01:37:33;;;;;;;6.83;1.90;;;;;;;11.53;63.66;100211.61;1701275;83;21640;-72
2022/10/31 01:40:00;;;;;;;5.83;1.77;;;;;;;11.51;63.69;100195.27;1719669;81;21089;-72
2022/10/31 01:42:27;;;;;;;5.78;1.82;;;;;;;11.49;63.83;100196.09;1728120;83;21809;-72
2022/10/31 01:44:58;;;;;;;5.37;1.85;;;;;;;11.50;63.71;100197.69;1703125;83;21063;-72
2022/10/31 01:47:42;;;;;;;7.90;2.00;;;;;;;11.51;63.68;100195.81;1722734;82;21047;-72
2022/10/31 01:50:17;;;;;;;6.08;2.05;;;;;;;11.52;63.66;100206.80;1732787;81;21087;-74
2022/10/31 01:52:47;;;;;;;4.45;1.60;;;;;;;11.52;63.68;100198.77;1729267;83;21220;-73
2022/10/31 01:55:23;;;;;;;7.15;1.80;;;;;;;11.50;63.55;100201.70;1721771;82;21035;-72
2022/10/31 01:57:53;;;;;;;4.90;1.52;;;;;;;11.55;63.54;100204.92;1708831;82;21115;-72
2022/10/31 02:00:20;;;;;;;7.60;1.77;;;;;;;11.55;63.40;100204.09;1731526;81;21566;-73
2022/10/31 02:02:48;;;;;;;8.20;1.75;;;;;;;11.54;63.34;100195.27;1695156;84;21141;-74
2022/10/31 02:05:21;;;;;;;6.50;1.70;;;;;;;11.58;63.22;100212.91;1710280;83;21523;-72
2022/10/31 02:08:07;;;;;;;4.70;1.80;;;;;;;11.56;63.07;100217.21;1749971;81;21231;-71
2022/10/31 02:10:35;;;;;;;6.15;1.70;;;;;;;11.56;62.90;100207.85;1702587;83;20964;-74
2022/10/31 02:13:06;;;;;;;4.53;1.50;;;;;;;11.59;62.85;100196.61;1679294;83;21059;-72
2022/10/31 02:15:36;;;;;;;4.87;1.75;;;;;;;11.60;62.79;100196.06;1704315;81;21047;-72
2022/10/31 02:18:04;;;;;;;6.78;1.82;;;;;;;11.58;62.85;100200.88;1718500;83;21043;-72
2022/10/31 02:20:45;;;;;;;4.78;1.57;;;;;;;11.55;62.84;100210.78;1731362;81;21216;-72
2022/10/31 02:23:52;;;;;;;5.00;1.70;;;;;;;11.40;63.14;100212.42;1694546;83;21097;-73
2022/10/31 02:26:34;;;;;;;6.75;1.75;;;;;;;11.12;63.94;100217.83;1729828;83;21743;-73
2022/10/31 02:29:12;;;;;;;4.87;1.60;;;;;;;11.04;64.19;100220.48;1701306;83;21160;-72
2022/10/31 02:31:57;;;;;;;7.03;1.80;;;;;;;11.02;64.51;100236.52;1718891;83;22203;-72
2022/10/31 02:34:32;;;;;;;5.05;1.65;;;;;;;10.99;64.60;100223.69;1715232;81;21259;-72
2022/10/31 02:37:07;;;;;;;7.95;2.10;;;;;;;10.97;64.73;100235.98;1722371;83;21005;-72
2022/10/31 02:39:50;;;;;;;5.15;1.80;;;;;;;10.96;64.78;100229.05;1699207;83;20987;-73
2022/10/31 02:42:40;;;;;;;6.92;2.20;;;;;;;10.96;64.85;100234.40;1699297;83;21107;-73
2022/10/31 02:45:25;;;;;;;5.70;1.67;;;;;;;11.26;64.19;100230.91;1712367;83;21085;-73
2022/10/31 02:47:55;;;;;;;5.37;1.62;;;;;;;11.32;63.92;100243.73;1703426;81;21231;-72
2022/10/31 02:50:33;;;;;;;4.47;1.60;;;;;;;11.32;63.72;100245.08;1730582;81;21530;-72
2022/10/31 02:53:01;;;;;;;5.80;2.05;;;;;;;11.34;63.65;100254.95;1723729;82;21158;-72
2022/10/31 02:55:36;;;;;;;4.78;1.70;;;;;;;11.35;63.56;100271.28;1710450;83;21059;-74
2022/10/31 02:58:13;;;;;;;5.42;1.80;;;;;;;11.36;63.44;100270.20;1703836;83;20916;-72
2022/10/31 03:01:11;;;;;;;6.28;1.70;;;;;;;11.37;63.39;100257.63;1737803;82;21437;-72
2022/10/31 03:03:59;;;;;;;5.65;1.70;;;;;;;11.23;63.58;100270.20;1742021;81;21427;-74
2022/10/31 03:06:35;;;;;;;5.00;1.70;;;;;;;11.08;64.01;100272.87;1691945;84;21582;-73
2022/10/31 03:09:25;;;;;;;6.33;2.00;;;;;;;10.99;64.23;100279.30;1713433;82;21011;-73
2022/10/31 03:12:33;;;;;;;6.78;1.90;;;;;;;10.97;64.29;100263.25;1727125;83;21037;-73
2022/10/31 03:15:24;;;;;;;6.47;1.72;;;;;;;10.96;64.42;100266.47;1695991;83;21173;-72
2022/10/31 03:18:00;;;;;;;4.17;1.50;;;;;;;10.94;64.40;100275.27;1689452;84;21078;-71
2022/10/31 03:20:44;;;;;;;5.87;1.72;;;;;;;10.96;64.37;100289.72;1670258;82;21086;-71
2022/10/31 03:23:15;;;;;;;6.75;1.80;;;;;;;10.96;64.36;100284.37;1722926;83;20980;-71
2022/10/31 03:25:42;;;;;;;6.12;1.92;;;;;;;10.98;64.23;100293.70;1723000;81;21037;-73
2022/10/31 03:28:12;;;;;;;7.33;1.80;;;;;;;11.06;64.11;100284.92;1688917;84;21957;-72
2022/10/31 03:30:41;;;;;;;3.83;1.62;;;;;;;11.13;64.00;100300.95;1730900;81;21070;-72
2022/10/31 03:33:13;;;;;;;4.62;1.57;;;;;;;11.19;63.71;100295.88;1710086;82;21039;-72
2022/10/31 03:35:43;;;;;;;4.97;1.70;;;;;;;11.25;63.56;100302.00;1718773;82;21043;-72
2022/10/31 03:38:09;;;;;;;6.20;1.95;;;;;;;11.28;62.99;100305.48;1730608;81;20968;-72
2022/10/31 03:40:37;;;;;;;7.70;1.80;;;;;;;11.33;62.73;100312.18;1731664;81;21557;-73
2022/10/31 03:43:09;;;;;;;4.22;1.60;;;;;;;11.35;62.39;100318.59;1723929;83;21055;-73
2022/10/31 03:45:42;;;;;;;4.90;2.15;;;;;;;11.33;61.83;100316.19;1730679;81;21132;-74
2022/10/31 03:48:09;;;;;;;4.35;1.50;;;;;;;11.29;61.19;100313.79;1695487;83;21072;-73
2022/10/31 03:50:47;;;;;;;5.67;2.00;;;;;;;11.26;61.02;100316.45;1716093;81;20952;-73
2022/10/31 03:53:42;;;;;;;5.00;1.70;;;;;;;11.26;61.13;100331.70;1691940;83;21569;-73
2022/10/31 03:56:35;;;;;;;7.90;1.80;;;;;;;11.22;60.83;100323.92;1730771;81;21054;-74
2022/10/31 03:59:09;;;;;;;4.67;1.47;;;;;;;11.14;59.85;100356.55;1698432;83;21056;-72
2022/10/31 04:01:40;;;;;;;4.22;1.10;;;;;;;11.04;58.64;100332.73;1722098;83;21486;-72
2022/10/31 04:04:06;;;;;;;2.65;0.80;;;;;;;10.95;56.40;100341.00;1764691;80;21074;-74
2022/10/31 04:06:34;;;;;;;4.62;1.02;;;;;;;10.87;54.44;100360.77;1764972;80;22108;-71
2022/10/31 04:09:05;;;;;;;3.30;0.68;;;;;;;10.82;52.99;100351.39;1770453;80;21044;-74
2022/10/31 04:11:37;;;;;;;2.00;0.60;;;;;;;10.71;50.93;100363.39;1767131;80;21027;-72
2022/10/31 04:14:06;;;;;;;3.42;0.70;;;;;;;10.63;49.78;100352.40;1751980;80;21059;-71
2022/10/31 04:16:34;;;;;;;2.83;0.68;;;;;;;10.56;49.36;100352.64;1711999;83;21037;-72
2022/10/31 04:19:01;;;;;;;2.70;0.60;;;;;;;10.52;49.40;100364.38;1693597;83;21732;-75
2022/10/31 04:21:30;;;;;;;2.85;0.75;;;;;;;10.46;49.34;100373.97;1723144;82;21483;-72
2022/10/31 04:23:59;;;;;;;1.25;0.60;;;;;;;10.40;49.27;100349.64;1746693;81;21554;-71
2022/10/31 04:26:26;;;;;;;1.92;0.65;;;;;;;10.32;48.96;100378.98;1754675;81;21563;-73
2022/10/31 04:28:53;;;;;;;3.65;0.65;;;;;;;10.27;49.05;100385.11;1753414;81;20991;-72
2022/10/31 04:31:19;;;;;;;2.45;0.70;;;;;;;10.19;48.29;100382.87;1754690;81;21229;-72
2022/10/31 04:33:47;;;;;;;1.80;0.72;;;;;;;10.16;47.94;100383.92;1741469;81;21011;-71
2022/10/31 04:36:14;;;;;;;1.32;0.50;;;;;;;10.13;47.01;100393.78;1724564;81;21633;-77
2022/10/31 04:38:42;;;;;;;5.65;0.88;;;;;;;10.12;47.05;100374.84;1735130;81;20976;-73
2022/10/31 04:41:10;;;;;;;1.98;0.45;;;;;;;10.07;47.07;100390.30;1733883;81;21708;-71
2022/10/31 04:43:54;;;;;;;2.17;0.50;;;;;;;10.04;46.50;100392.15;1754335;81;21605;-75
2022/10/31 04:46:20;;;;;;;3.27;0.50;;;;;;;9.98;45.94;100404.64;1737411;81;21543;-72
2022/10/31 04:48:47;;;;;;;4.85;0.70;;;;;;;9.98;46.52;100409.98;1724707;81;21542;-71
2022/10/31 04:51:14;;;;;;;3.47;0.50;;;;;;;9.94;47.01;100410.23;1725559;81;21097;-72
2022/10/31 04:53:40;;;;;;;2.12;0.62;;;;;;;9.89;47.28;100419.51;1726384;81;21024;-72
2022/10/31 04:56:26;;;;;;;2.30;0.68;;;;;;;9.84;47.62;100421.62;1715076;82;21238;-76
2022/10/31 04:58:54;;;;;;;2.17;0.50;;;;;;;9.76;47.70;100439.41;1693236;84;21056;-73
2022/10/31 05:01:22;;;;;;;0.95;0.57;;;;;;;9.71;47.40;100439.39;1714291;82;21012;-72
2022/10/31 05:03:49;;;;;;;1.57;0.60;;;;;;;9.68;47.69;100433.76;1762823;80;21121;-72
2022/10/31 05:06:16;;;;;;;1.52;0.68;;;;;;;9.67;47.70;100441.46;1760559;81;21043;-71
2022/10/31 05:08:43;;;;;;;1.87;0.72;;;;;;;9.69;47.97;100443.36;1704822;82;21165;-73
2022/10/31 05:11:12;;;;;;;4.53;0.80;;;;;;;9.67;48.28;100456.12;1702586;83;21009;-73
2022/10/31 05:13:40;;;;;;;2.47;0.82;;;;;;;9.64;48.57;100478.80;1707579;82;20972;-74
2022/10/31 05:16:10;;;;;;;2.55;0.60;;;;;;;9.61;48.77;100462.77;1712450;83;21479;-72
2022/10/31 05:18:44;;;;;;;2.95;0.70;;;;;;;9.60;48.84;100475.00;1713746;81;21070;-74
2022/10/31 05:21:28;;;;;;;2.58;0.70;;;;;;;9.63;49.10;100476.63;1716887;83;22066;-73
2022/10/31 05:23:57;;;;;;;2.30;0.70;;;;;;;9.68;49.52;100483.09;1719831;81;21450;-72
2022/10/31 05:26:25;;;;;;;2.42;0.60;;;;;;;9.67;49.42;100490.80;1729995;83;21560;-72
2022/10/31 05:28:54;;;;;;;4.28;0.90;;;;;;;9.67;49.29;100493.47;1726163;81;21258;-74
2022/10/31 05:31:20;;;;;;;1.60;0.60;;;;;;;9.69;49.37;100500.70;1723815;81;21086;-72
2022/10/31 05:33:49;;;;;;;3.40;0.72;;;;;;;9.71;49.56;100491.93;1736806;82;21253;-72
2022/10/31 05:36:35;;;;;;;2.72;0.80;;;;;;;9.71;49.90;100504.73;1695563;83;21149;-72
2022/10/31 05:39:06;;;;;;;3.02;0.70;;;;;;;9.74;50.33;100507.40;1692531;84;21062;-71
2022/10/31 05:41:38;;;;;;;2.90;0.98;;;;;;;9.74;50.39;100514.06;1719799;82;21016;-73
2022/10/31 05:44:06;;;;;;;3.17;0.75;;;;;;;9.75;50.36;100535.70;1716003;82;21549;-73
2022/10/31 05:46:36;;;;;;;2.98;0.70;;;;;;;9.74;50.00;100524.73;1717497;83;21159;-73
2022/10/31 05:49:05;;;;;;;2.27;0.75;;;;;;;9.75;49.81;100541.84;1719632;83;21522;-72
2022/10/31 05:51:49;;;;;;;3.17;0.95;;;;;;;9.74;49.70;100534.07;1730345;81;21745;-71
2022/10/31 05:54:17;;;;;;;2.15;0.50;;;;;;;9.77;49.67;100545.06;1707532;83;21198;-75
2022/10/31 05:56:45;;;;;;;2.40;0.90;;;;;;;9.77;49.39;100578.41;1734893;81;21063;-72
2022/10/31 05:59:13;;;;;;;2.17;0.80;;;;;;;9.77;49.02;100558.91;1722311;81;21626;-72
2022/10/31 06:01:40;;;;;;;2.47;0.72;;;;;;;9.80;49.18;100558.41;1713015;81;21059;-71
2022/10/31 06:04:08;;;;;;;2.65;0.60;;;;;;;9.81;48.89;100562.70;1760507;80;20988;-71
2022/10/31 06:06:37;;;;;;;2.37;0.60;;;;;;;9.80;48.53;100563.21;1760109;81;21074;-72
2022/10/31 06:09:04;;;;;;;2.00;0.65;;;;;;;9.82;48.43;100577.11;1762633;80;21059;-73
2022/10/31 06:11:32;;;;;;;2.70;0.82;;;;;;;9.83;48.44;100576.58;1760729;81;21140;-71
2022/10/31 06:14:02;;;;;;;3.33;0.90;;;;;;;9.86;48.37;100573.41;1764907;80;21598;-73
2022/10/31 06:16:42;;;;;;;2.50;0.80;;;;;;;9.86;48.30;100598.22;1760131;81;21007;-73
2022/10/31 06:19:13;;;;;;;2.83;0.75;;;;;;;9.85;47.99;100604.62;1756977;81;20952;-73
2022/10/31 06:21:41;;;;;;;1.98;0.70;;;;;;;9.85;47.99;100594.48;1762283;80;21500;-73
2022/10/31 06:24:07;;;;;;;4.97;1.00;;;;;;;9.88;48.45;100604.66;1760813;80;21332;-73
2022/10/31 06:26:36;;;;;;;2.35;0.80;;;;;;;9.89;48.46;100609.47;1733669;82;21566;-73
2022/10/31 06:29:03;;;;;;;4.20;0.95;;;;;;;9.90;48.32;100606.53;1729806;81;20989;-72
2022/10/31 06:31:34;;;;;;;4.20;0.90;;;;;;;9.93;48.70;100615.37;1713622;83;21035;-72
2022/10/31 06:34:01;;;;;;;2.70;0.90;;;;;;;9.93;48.43;100607.89;1723632;83;21017;-73
2022/10/31 06:36:28;;;;;;;5.42;0.88;;;;;;;9.93;48.56;100616.70;1711852;82;21335;-72
2022/10/31 06:38:55;;;;;;;2.47;0.80;;;;;;;9.96;48.59;100611.40;1727640;81;21221;-72
2022/10/31 06:41:23;;;;;;;4.70;1.52;;;;;;;9.93;47.54;100632.71;1734698;81;21099;-73
2022/10/31 06:43:50;;;;;;;2.52;0.80;;;;;;;9.96;47.68;100634.08;1727097;81;21484;-73
2022/10/31 06:46:18;;;;;;;1.82;0.70;;;;;;;10.00;47.83;100638.69;1748596;81;21044;-73
2022/10/31 06:48:50;;;;;;;1.70;0.60;;;;;;;10.04;47.89;100642.45;1751140;81;21136;-72
2022/10/31 06:51:18;;;;;;;3.67;0.90;;;;;;;10.06;47.19;100638.19;1753548;81;21020;-73
2022/10/31 06:53:45;;;;;;;2.72;0.88;;;;;;;10.08;47.01;100655.56;1753739;81;21011;-72
2022/10/31 06:56:13;;;;;;;3.05;1.02;;;;;;;10.12;46.79;100660.41;1741693;81;21150;-73
2022/10/31 06:58:41;;;;;;;2.53;0.77;;;;;;;10.12;45.52;100652.39;1372933;81;10000284;-72
2022/10/31 07:01:09;;;;;;;2.85;0.80;;;;;;;10.13;45.47;100660.67;1735906;81;21118;-72
2022/10/31 07:03:37;;;;;;;2.90;1.20;;;;;;;10.18;46.39;100662.07;1721443;82;21239;-72
2022/10/31 07:06:05;;;;;;;2.35;0.70;;;;;;;10.25;46.95;100661.34;1766562;80;21098;-73
2022/10/31 07:08:33;;;;;;;1.62;0.60;;;;;;;10.31;45.60;100659.03;1760817;80;21061;-75
2022/10/31 07:11:01;;;;;;;2.87;0.78;;;;;;;10.29;44.55;100657.13;1745999;80;21046;-73
2022/10/31 07:13:29;;;;;;;1.47;0.60;;;;;;;10.31;44.90;100664.37;1780727;80;21617;-74
2022/10/31 07:16:06;;;;;;;1.17;0.57;;;;;;;10.32;43.14;100678.78;1760464;80;21839;-74
2022/10/31 07:18:34;;;;;;;2.85;0.60;;;;;;;10.30;43.03;100663.56;1777268;80;21058;-74
2022/10/31 07:21:04;;;;;;;1.45;0.50;;;;;;;10.30;43.14;100700.14;1757200;80;21054;-73
2022/10/31 07:23:33;;;;;;;2.83;0.60;;;;;;;10.25;42.48;100674.16;1703373;83;21040;-73
2022/10/31 07:26:20;;;;;;;1.27;0.50;;;;;;;10.22;42.12;100679.99;1722252;83;21074;-72
2022/10/31 07:28:50;;;;;;;1.00;0.50;;;;;;;10.20;41.14;100670.61;1718010;83;21541;-76
2022/10/31 07:31:19;;;;;;;3.72;0.68;;;;;;;10.18;40.69;100676.75;1700368;81;21546;-71
2022/10/31 07:33:46;;;;;;;2.47;0.40;;;;;;;10.18;39.09;100675.42;1768568;80;21070;-75
2022/10/31 07:36:28;;;;;;;2.47;0.62;;;;;;;10.13;38.53;100693.50;1774093;80;21643;-71
2022/10/31 07:38:58;;;;;;;1.65;0.55;;;;;;;10.13;39.28;100690.83;1767976;80;21548;-72
2022/10/31 07:41:31;;;;;;;3.30;0.60;;;;;;;10.15;39.51;100681.26;1720764;83;21371;-70
2022/10/31 07:43:58;;;;;;;2.83;0.70;;;;;;;10.18;40.01;100688.77;1718307;81;21084;-71
2022/10/31 07:46:35;;;;;;;2.55;0.80;;;;;;;10.22;40.42;100685.86;1702526;83;21071;-72
2022/10/31 07:49:21;;;;;;;1.62;0.50;;;;;;;10.29;40.54;100682.49;1734980;81;21027;-72
2022/10/31 07:52:09;;;;;;;2.25;0.70;;;;;;;10.36;38.99;100687.63;1679310;84;21683;-75
2022/10/31 07:54:54;;;;;;;1.25;0.50;;;;;;;10.37;38.81;100699.41;1689039;84;21274;-73
2022/10/31 07:57:23;;;;;;;2.30;0.57;;;;;;;10.34;38.08;100691.91;1705161;81;21031;-72
2022/10/31 07:59:51;;;;;;;3.17;0.50;;;;;;;10.36;38.36;100698.31;1749296;81;21045;-73
2022/10/31 08:02:19;;;;;;;1.45;0.50;;;;;;;10.37;38.31;100690.59;1749859;81;21050;-72
2022/10/31 08:04:49;;;;;;;2.22;0.60;;;;;;;10.41;38.45;100703.18;1737371;81;21208;-73
2022/10/31 08:07:37;;;;;;;1.45;0.60;;;;;;;10.42;38.02;100695.44;1709074;82;22274;-72
2022/10/31 08:10:06;;;;;;;2.70;0.70;;;;;;;10.45;38.47;100686.12;1711167;81;21149;-72
2022/10/31 08:12:34;;;;;;;2.75;0.75;;;;;;;10.47;38.88;100696.03;1715397;82;21070;-71
2022/10/31 08:15:04;;;;;;;4.92;0.90;;;;;;;10.53;39.23;100699.03;1739798;81;21074;-73
2022/10/31 08:17:37;;;;;;;1.92;0.60;;;;;;;10.59;38.61;100707.34;1741598;81;21094;-72
2022/10/31 08:20:05;;;;;;;5.00;0.90;;;;;;;10.66;38.08;100705.30;1707663;83;21163;-72
2022/10/31 08:22:34;;;;;;;1.90;0.62;;;;;;;10.69;37.91;100703.96;1707008;83;21051;-70
2022/10/31 08:25:03;;;;;;;10.35;1.92;;;;;;;10.70;38.36;100701.59;1713524;83;21558;-71
2022/10/31 08:27:32;;;;;;;2.98;0.70;;;;;;;10.74;38.48;100694.67;1773748;80;21587;-72
2022/10/31 08:30:00;;;;;;;2.42;0.70;;;;;;;10.79;38.55;100692.02;1777772;80;21541;-71
2022/10/31 08:32:27;;;;;;;6.20;0.80;;;;;;;10.86;38.85;100703.33;1765466;80;21121;-71
2022/10/31 08:35:11;;;;;;;2.08;0.65;;;;;;;10.93;38.72;100709.27;1691318;83;21028;-73
2022/10/31 08:37:57;;;;;;;4.47;0.80;;;;;;;11.01;38.65;100700.75;1763964;80;21604;-72
2022/10/31 08:40:26;;;;;;;5.67;1.07;;;;;;;11.06;38.13;100703.22;1774539;80;21537;-73
2022/10/31 08:43:02;;;;;;;3.72;1.10;;;;;;;11.06;38.22;100696.00;1759413;80;21561;-74
2022/10/31 08:45:31;;;;;;;2.87;0.70;;;;;;;11.12;38.25;100700.83;1784967;80;21854;-73
2022/10/31 08:48:01;;;;;;;3.87;0.90;;;;;;;11.17;37.97;100710.23;1711474;83;21071;-72
2022/10/31 08:50:29;;;;;;;2.35;0.75;;;;;;;11.21;37.60;100692.61;1725029;82;21071;-71
2022/10/31 08:53:15;;;;;;;1.87;0.70;;;;;;;11.23;37.53;100691.83;1501410;81;9999856;-72
2022/10/31 08:55:45;;;;;;;1.70;0.60;;;;;;;11.26;37.53;100684.09;1574324;83;9999911;-74
2022/10/31 08:58:18;;;;;;;2.80;0.98;;;;;;;11.30;36.48;100694.28;1714947;83;21004;-72
2022/10/31 09:00:50;;;;;;;3.10;0.72;;;;;;;11.34;36.81;100690.81;1707673;83;21078;-71
2022/10/31 09:03:23;;;;;;;3.02;0.80;;;;;;;11.38;36.09;100683.08;1714962;83;21839;-72
2022/10/31 09:05:51;;;;;;;3.42;0.80;;;;;;;11.45;36.79;100683.14;1701782;83;21078;-72
2022/10/31 09:08:18;;;;;;;1.27;0.60;;;;;;;11.50;35.46;100691.17;1700695;83;21078;-72
2022/10/31 09:10:46;;;;;;;3.65;0.70;;;;;;;11.46;34.76;100694.64;1771684;80;21082;-73
2022/10/31 09:13:19;;;;;;;1.90;0.70;;;;;;;11.45;34.82;100685.81;1765242;80;21085;-73
2022/10/31 09:15:51;;;;;;;6.97;1.10;;;;;;;11.47;34.84;100697.58;1704944;82;22054;-72
2022/10/31 09:18:23;;;;;;;2.27;0.60;;;;;;;11.51;35.10;100680.74;1728427;81;20994;-73
2022/10/31 09:20:58;;;;;;;1.57;0.70;;;;;;;11.62;35.11;100683.49;1709934;82;21140;-72
2022/10/31 09:23:27;;;;;;;2.33;0.60;;;;;;;11.71;34.80;100684.07;1737751;81;21003;-72
2022/10/31 09:25:55;;;;;;;2.60;0.60;;;;;;;11.80;34.96;100688.37;1769631;80;21035;-72
2022/10/31 09:28:27;;;;;;;3.00;0.65;;;;;;;11.90;35.41;100684.96;1720849;82;21148;-72
2022/10/31 09:30:55;;;;;;;3.22;0.72;;;;;;;12.00;34.87;100686.87;1722006;82;21562;-72
2022/10/31 09:33:23;;;;;;;2.17;0.57;;;;;;;12.03;34.20;100680.99;1775141;80;20987;-72
2022/10/31 09:35:53;;;;;;;1.98;0.60;;;;;;;12.00;33.49;100687.67;1767088;80;21223;-73
2022/10/31 09:38:20;;;;;;;3.63;0.80;;;;;;;11.94;33.11;100680.69;1761295;80;21047;-72
2022/10/31 09:41:14;;;;;;;2.17;0.60;;;;;;;11.94;33.41;100676.67;1718419;82;21831;-71
2022/10/31 09:43:47;;;;;;;4.43;0.70;;;;;;;11.96;33.53;100671.87;1691432;81;20979;-72
2022/10/31 09:46:39;;;;;;;1.82;0.60;;;;;;;12.00;33.27;100678.84;1770171;80;21762;-76
2022/10/31 09:49:20;;;;;;;2.40;0.70;;;;;;;12.01;33.27;100717.41;1719981;82;21106;-71
2022/10/31 09:52:19;;;;;;;3.58;0.60;;;;;;;12.02;32.47;100676.72;1726110;81;21118;-73
2022/10/31 09:54:57;;;;;;;2.20;0.60;;;;;;;12.04;33.01;100689.28;1471505;81;9999843;-71
2022/10/31 09:57:28;;;;;;;3.58;0.60;;;;;;;12.09;32.93;100687.44;1704648;83;21088;-73
2022/10/31 09:59:55;;;;;;;1.87;0.70;;;;;;;12.14;32.34;100681.28;1730725;81;21247;-75
2022/10/31 10:02:39;;;;;;;4.28;0.98;;;;;;;12.15;32.16;100699.77;1706940;81;21199;-72
2022/10/31 10:05:13;;;;;;;1.77;0.62;;;;;;;12.15;32.51;100681.56;1733147;81;20985;-74
2022/10/31 10:08:14;;;;;;;0.82;0.40;;;;;;;12.16;31.86;100686.64;1720656;83;21044;-73
2022/10/31 10:11:49;;;;;;;1.17;0.50;;;;;;;12.17;32.00;100696.31;1724235;83;21622;-72
2022/10/31 10:14:43;;;;;;;2.22;0.60;;;;;;;12.19;31.74;100694.69;1703408;83;21112;-73
2022/10/31 10:17:21;;;;;;;2.05;0.70;;;;;;;12.26;31.56;100691.22;1722622;83;21461;-71
2022/10/31 10:20:19;;;;;;;2.77;0.80;;;;;;;12.26;31.04;100687.20;1722789;83;21541;-73
2022/10/31 10:23:25;;;;;;;1.90;0.50;;;;;;;12.26;30.83;100700.59;1722795;82;21081;-75
2022/10/31 10:25:57;;;;;;;3.05;0.60;;;;;;;12.24;30.58;100717.48;1722834;83;21035;-72
2022/10/31 10:28:32;;;;;;;1.87;0.60;;;;;;;12.26;31.05;100687.74;1726920;82;21020;-71
2022/10/31 10:31:04;;;;;;;1.87;0.78;;;;;;;12.27;30.61;100680.77;1685499;83;21605;-74
2022/10/31 10:33:40;;;;;;;3.03;0.60;;;;;;;12.29;31.04;100695.25;1727211;83;21137;-72
2022/10/31 10:36:14;;;;;;;1.42;0.50;;;;;;;12.35;31.17;100686.96;1734084;81;22239;-74
2022/10/31 10:39:00;;;;;;;5.05;0.80;;;;;;;12.34;30.77;100686.70;1722473;83;21118;-71
2022/10/31 10:41:31;;;;;;;1.82;0.72;;;;;;;12.40;31.38;100703.05;1741631;81;21043;-71
2022/10/31 10:43:58;;;;;;;2.33;0.60;;;;;;;12.45;30.43;100678.14;1722864;83;22071;-72
2022/10/31 10:49:50;;;;;;;3.07;0.60;;;;;;;12.46;30.24;100683.75;1711549;83;21079;-74
2022/10/31 10:52:29;;;;;;;1.47;0.62;;;;;;;12.48;30.41;100704.40;1722474;81;21298;-74
2022/10/31 10:55:25;;;;;;;3.87;0.93;;;;;;;12.50;30.07;100696.08;1700300;83;21451;-72
2022/10/31 10:58:04;;;;;;;2.20;0.80;;;;;;;12.48;30.23;100692.34;1736380;81;21330;-73
2022/10/31 11:00:39;;;;;;;3.50;0.70;;;;;;;12.51;30.78;100692.35;1706450;83;21280;-72
2022/10/31 11:03:06;;;;;;;2.07;0.80;;;;;;;12.56;30.49;100686.44;1701450;83;21617;-73
2022/10/31 11:05:44;;;;;;;4.65;0.90;;;;;;;12.60;30.82;100682.69;1694230;83;21368;-76
2022/10/31 11:08:25;;;;;;;5.10;0.82;;;;;;;12.65;30.20;100712.19;1766671;80;21070;-72
2022/10/31 11:11:08;;;;;;;10.63;1.98;;;;;;;12.66;30.28;100680.28;1765705;80;21121;-72
2022/10/31 11:13:36;;;;;;;4.73;0.80;;;;;;;12.65;29.82;100680.03;1769166;80;21027;-71
2022/10/31 11:16:09;;;;;;;3.40;0.70;;;;;;;12.63;30.01;100682.16;1768502;80;21678;-71
2022/10/31 11:18:45;;;;;;;2.72;0.80;;;;;;;12.65;30.61;100680.03;1764844;80;21733;-74
2022/10/31 11:21:29;;;;;;;2.20;0.60;;;;;;;12.60;29.89;100690.22;1767465;80;21075;-71
2022/10/31 11:24:15;;;;;;;4.10;0.87;;;;;;;12.59;29.98;100679.75;1761475;80;21225;-71
2022/10/31 11:26:44;;;;;;;1.60;0.70;;;;;;;12.58;29.88;100682.97;1763104;80;21205;-71
2022/10/31 11:29:24;;;;;;;3.60;0.78;;;;;;;12.64;30.10;100682.45;1727509;82;21408;-74
2022/10/31 11:31:54;;;;;;;4.70;0.77;;;;;;;12.64;30.00;100696.64;1736516;82;20973;-72
2022/10/31 11:34:32;;;;;;;3.10;0.83;;;;;;;12.66;29.61;100693.69;1764640;80;21639;-74
2022/10/31 11:37:04;;;;;;;2.37;0.60;;;;;;;12.64;29.78;100707.37;1761527;80;21831;-71
2022/10/31 11:39:31;;;;;;;4.43;1.13;;;;;;;12.65;29.67;100686.73;1758488;81;21051;-73
2022/10/31 11:42:01;;;;;;;1.13;0.60;;;;;;;12.68;29.54;100686.20;1777405;80;21367;-71
2022/10/31 11:44:29;;;;;;;1.97;0.70;;;;;;;12.70;29.44;100681.38;1717693;83;21320;-72
2022/10/31 11:47:04;;;;;;;3.43;0.80;;;;;;;12.71;29.10;100688.34;1728525;82;21187;-71
2022/10/31 11:49:40;;;;;;;4.22;0.80;;;;;;;12.71;29.13;100695.04;1710943;82;22179;-71
2022/10/31 11:52:18;;;;;;;2.83;0.70;;;;;;;12.73;29.33;100698.78;1701905;83;20957;-70
2022/10/31 11:54:58;;;;;;;1.20;0.60;;;;;;;12.74;29.13;100689.15;1704560;81;22441;-72
2022/10/31 11:57:33;;;;;;;3.53;0.80;;;;;;;12.78;28.96;100681.37;1699851;81;21304;-78